createdAt,value
2022-08-24T00:00:13.575Z,4.90
2022-08-24T00:02:40.044Z,4.03
2022-08-24T00:05:10.515Z,4.43
2022-08-24T00:07:40.874Z,4.20
2022-08-24T00:10:08.241Z,4.30
2022-08-24T00:12:34.740Z,5.70
2022-08-24T00:15:01.246Z,4.73
2022-08-24T00:17:27.645Z,4.90
2022-08-24T00:19:54.318Z,4.63
2022-08-24T00:22:20.923Z,4.97
2022-08-24T00:24:47.342Z,4.97
2022-08-24T00:27:13.731Z,4.63
2022-08-24T00:29:40.243Z,4.50
2022-08-24T00:32:06.744Z,4.53
2022-08-24T00:34:34.172Z,5.33
2022-08-24T00:37:00.511Z,4.83
2022-08-24T00:39:26.937Z,4.40
2022-08-24T00:41:53.619Z,5.10
2022-08-24T00:44:21.157Z,5.30
2022-08-24T00:46:50.617Z,4.67
2022-08-24T00:49:20.040Z,4.80
2022-08-24T00:51:55.528Z,5.80
2022-08-24T00:54:22.840Z,4.57
2022-08-24T00:56:51.843Z,6.13
2022-08-24T00:59:20.052Z,4.77
2022-08-24T01:01:47.605Z,5.67
2022-08-24T01:04:29.063Z,5.53
2022-08-24T01:06:56.160Z,5.17
2022-08-24T01:09:22.757Z,4.90
2022-08-24T01:11:49.820Z,4.77
2022-08-24T01:14:19.232Z,4.87
2022-08-24T01:17:04.544Z,5.57
2022-08-24T01:19:37.497Z,4.70
2022-08-24T01:22:20.668Z,5.20
2022-08-24T01:24:47.527Z,6.57
2022-08-24T01:27:15.359Z,6.23
2022-08-24T01:29:45.129Z,5.30
2022-08-24T01:32:12.120Z,4.87
2022-08-24T01:34:38.639Z,4.70
2022-08-24T01:37:08.436Z,4.83
2022-08-24T01:39:40.366Z,5.47
2022-08-24T01:42:06.942Z,5.03
2022-08-24T01:44:36.178Z,5.27
2022-08-24T01:47:06.783Z,5.50
2022-08-24T01:49:36.890Z,5.53
2022-08-24T01:52:06.427Z,5.23
2022-08-24T01:54:33.839Z,6.27
2022-08-24T01:57:00.738Z,6.17
2022-08-24T01:59:28.504Z,4.87
2022-08-24T02:02:04.107Z,5.10
2022-08-24T02:04:32.716Z,5.37
2022-08-24T02:06:59.433Z,5.20
2022-08-24T02:09:27.874Z,5.33
2022-08-24T02:11:59.706Z,5.27
2022-08-24T02:14:26.388Z,5.37
2022-08-24T02:16:57.263Z,5.20
2022-08-24T02:19:27.244Z,5.13
2022-08-24T02:21:53.809Z,4.83
2022-08-24T02:24:20.225Z,5.17
2022-08-24T02:26:47.139Z,5.07
2022-08-24T02:29:13.587Z,6.17
2022-08-24T02:31:39.947Z,4.63
2022-08-24T02:34:06.803Z,5.67
2022-08-24T02:36:33.249Z,6.00
2022-08-24T02:39:00.405Z,5.07
2022-08-24T02:41:27.220Z,4.93
2022-08-24T02:43:54.816Z,5.93
2022-08-24T02:46:22.431Z,5.37
2022-08-24T02:48:54.954Z,5.03
2022-08-24T02:51:43.840Z,5.10
2022-08-24T02:54:12.937Z,6.57
2022-08-24T02:56:39.660Z,5.30
2022-08-24T02:59:06.461Z,6.80
2022-08-24T03:01:33.048Z,5.17
2022-08-24T03:03:59.534Z,8.23
2022-08-24T03:06:26.325Z,5.17
2022-08-24T03:08:56.219Z,5.30
2022-08-24T03:11:27.573Z,6.40
2022-08-24T03:13:55.365Z,5.80
2022-08-24T03:16:21.899Z,5.00
2022-08-24T03:18:48.919Z,5.53
2022-08-24T03:21:16.208Z,5.17
2022-08-24T03:23:43.920Z,5.10
2022-08-24T03:26:11.700Z,4.93
2022-08-24T03:28:38.338Z,5.23
2022-08-24T03:31:04.898Z,5.20
2022-08-24T03:33:31.351Z,5.60
2022-08-24T03:35:57.759Z,6.03
2022-08-24T03:38:24.520Z,5.33
2022-08-24T03:40:51.587Z,5.13
2022-08-24T03:43:37.086Z,4.67
2022-08-24T03:46:05.867Z,5.30
2022-08-24T03:48:32.984Z,7.27
2022-08-24T03:50:59.466Z,4.97
2022-08-24T03:53:25.861Z,6.63
2022-08-24T03:55:53.440Z,5.50
2022-08-24T03:58:19.937Z,5.70
2022-08-24T04:00:46.673Z,5.17
2022-08-24T04:03:14.091Z,5.53
2022-08-24T04:05:40.828Z,5.77
2022-08-24T04:08:07.997Z,6.17
2022-08-24T04:10:36.280Z,4.93
2022-08-24T04:13:02.895Z,5.50
2022-08-24T04:15:29.955Z,5.47
2022-08-24T04:17:56.669Z,5.60
2022-08-24T04:20:24.109Z,6.17
2022-08-24T04:22:51.438Z,6.63
2022-08-24T04:25:24.864Z,5.50
2022-08-24T04:27:51.524Z,5.97
2022-08-24T04:30:17.951Z,5.63
2022-08-24T04:33:07.576Z,5.30
2022-08-24T04:35:45.788Z,5.33
2022-08-24T04:38:12.475Z,5.40
2022-08-24T04:40:44.927Z,7.03
2022-08-24T04:43:19.649Z,6.13
2022-08-24T04:45:47.977Z,7.17
2022-08-24T04:48:15.796Z,7.43
2022-08-24T04:50:43.528Z,9.77
2022-08-24T04:53:10.919Z,6.73
2022-08-24T04:55:45.222Z,6.60
2022-08-24T04:58:13.447Z,6.50
2022-08-24T05:00:40.538Z,7.50
2022-08-24T05:03:07.004Z,7.50
2022-08-24T05:05:33.559Z,6.73
2022-08-24T05:08:00.517Z,6.70
2022-08-24T05:10:27.513Z,6.00
2022-08-24T05:13:00.119Z,6.80
2022-08-24T05:15:26.648Z,6.07
2022-08-24T05:17:53.554Z,6.77
2022-08-24T05:20:20.311Z,6.30
2022-08-24T05:22:46.886Z,7.43
2022-08-24T05:25:13.441Z,8.73
2022-08-24T05:27:39.848Z,7.23
2022-08-24T05:30:07.381Z,6.77
2022-08-24T05:32:33.813Z,8.50
2022-08-24T05:35:01.609Z,7.07
2022-08-24T05:37:28.583Z,6.90
2022-08-24T05:40:19.120Z,8.00
2022-08-24T05:42:53.114Z,6.60
2022-08-24T05:45:19.683Z,6.87
2022-08-24T05:47:46.068Z,6.70
2022-08-24T05:50:38.612Z,5.17
2022-08-24T05:53:06.384Z,5.80
2022-08-24T05:55:38.201Z,8.43
2022-08-24T05:58:05.524Z,5.90
2022-08-24T06:00:33.420Z,5.60
2022-08-24T06:03:00.408Z,7.23
2022-08-24T06:05:27.055Z,7.53
2022-08-24T06:07:53.947Z,5.90
2022-08-24T06:10:36.227Z,5.27
2022-08-24T06:13:05.348Z,6.63
2022-08-24T06:15:32.073Z,5.23
2022-08-24T06:17:58.543Z,5.50
2022-08-24T06:20:25.482Z,4.37
2022-08-24T06:22:51.892Z,6.83
2022-08-24T06:25:37.662Z,6.10
2022-08-24T06:28:04.063Z,5.77
2022-08-24T06:30:30.883Z,7.07
2022-08-24T06:33:18.189Z,8.27
2022-08-24T06:35:47.832Z,9.70
2022-08-24T06:38:14.714Z,6.97
2022-08-24T06:40:42.855Z,8.93
2022-08-24T06:43:10.989Z,8.13
2022-08-24T06:46:00.964Z,7.13
2022-08-24T06:48:32.479Z,8.60
2022-08-24T06:50:59.224Z,7.90
2022-08-24T06:53:26.229Z,9.53
2022-08-24T06:55:57.507Z,9.40
2022-08-24T06:58:24.863Z,7.87
2022-08-24T07:00:51.497Z,9.23
2022-08-24T07:03:20.871Z,7.00
2022-08-24T07:05:57.724Z,7.20
2022-08-24T07:08:34.425Z,7.50
2022-08-24T07:11:02.640Z,8.37
2022-08-24T07:13:31.124Z,7.73
2022-08-24T07:15:58.518Z,6.40
2022-08-24T07:18:27.966Z,6.07
2022-08-24T07:20:55.035Z,5.90
2022-08-24T07:23:41.139Z,6.00
2022-08-24T07:26:20.937Z,7.17
2022-08-24T07:28:50.590Z,6.33
2022-08-24T07:31:17.607Z,6.67
2022-08-24T07:33:54.734Z,6.80
2022-08-24T07:36:22.524Z,7.30
2022-08-24T07:38:52.362Z,4.63
2022-08-24T07:41:40.502Z,4.60
2022-08-24T07:44:06.777Z,4.07
2022-08-24T07:46:33.402Z,4.47
2022-08-24T07:49:10.919Z,5.03
2022-08-24T07:51:47.007Z,4.47
2022-08-24T07:54:14.251Z,3.90
2022-08-24T07:56:42.885Z,3.80
2022-08-24T07:59:13.025Z,3.33
2022-08-24T08:01:41.014Z,5.80
2022-08-24T08:04:09.796Z,3.17
2022-08-24T08:06:36.364Z,3.78
2022-08-24T08:09:05.054Z,4.03
2022-08-24T08:11:31.884Z,4.78
2022-08-24T08:13:59.095Z,5.50
2022-08-24T08:16:26.187Z,3.83
2022-08-24T08:19:09.289Z,4.68
2022-08-24T08:22:00.340Z,4.38
2022-08-24T08:24:27.036Z,4.33
2022-08-24T08:26:56.080Z,3.17
2022-08-24T08:29:26.057Z,3.30
2022-08-24T08:31:53.082Z,2.90
2022-08-24T08:34:20.770Z,3.90
2022-08-24T08:36:47.850Z,5.17
2022-08-24T08:39:17.555Z,3.60
2022-08-24T08:41:48.866Z,5.30
2022-08-24T08:44:29.604Z,5.07
2022-08-24T08:47:14.911Z,3.97
2022-08-24T08:49:44.422Z,6.30
2022-08-24T08:52:10.896Z,7.33
2022-08-24T08:54:59.652Z,5.90
2022-08-24T08:57:32.669Z,3.50
2022-08-24T09:00:06.272Z,3.63
2022-08-24T09:02:42.213Z,6.83
2022-08-24T09:05:32.155Z,8.57
2022-08-24T09:08:01.612Z,6.77
2022-08-24T09:10:51.824Z,4.30
2022-08-24T09:13:30.769Z,4.53
2022-08-24T09:16:06.052Z,3.70
2022-08-24T09:18:48.873Z,4.60
2022-08-24T09:21:24.684Z,3.27
2022-08-24T09:24:10.915Z,4.70
2022-08-24T09:26:42.117Z,4.23
2022-08-24T09:29:38.983Z,2.97
2022-08-24T09:32:24.871Z,3.85
2022-08-24T09:34:59.648Z,5.68
2022-08-24T09:37:52.347Z,5.10
2022-08-24T09:40:34.976Z,3.10
2022-08-24T09:43:19.629Z,2.60
2022-08-24T09:45:55.419Z,5.05
2022-08-24T09:48:24.982Z,2.90
2022-08-24T09:50:51.718Z,3.30
2022-08-24T09:53:33.109Z,4.25
2022-08-24T09:56:14.529Z,3.90
2022-08-24T09:58:57.754Z,3.58
2022-08-24T10:01:30.172Z,2.72
2022-08-24T10:04:21.049Z,2.20
2022-08-24T10:07:06.947Z,2.63
2022-08-24T10:09:45.345Z,3.83
2022-08-24T10:12:29.863Z,4.60
2022-08-24T10:15:05.500Z,3.30
2022-08-24T10:17:42.869Z,2.50
2022-08-24T10:20:12.159Z,2.50
2022-08-24T10:22:57.292Z,2.72
2022-08-24T10:25:33.613Z,2.80
2022-08-24T10:28:06.800Z,3.72
2022-08-24T10:30:51.694Z,2.47
2022-08-24T10:33:18.093Z,3.70
2022-08-24T10:36:03.566Z,3.70
2022-08-24T10:39:06.918Z,3.90
2022-08-24T10:41:59.076Z,3.08
2022-08-24T10:44:41.173Z,2.35
2022-08-24T10:47:28.430Z,2.30
2022-08-24T10:50:13.605Z,3.40
2022-08-24T10:52:58.726Z,2.97
2022-08-24T10:55:27.793Z,5.03
2022-08-24T10:58:00.197Z,3.25
2022-08-24T11:00:27.824Z,6.13
2022-08-24T11:03:27.900Z,3.80
2022-08-24T11:05:55.729Z,2.97
2022-08-24T11:08:29.973Z,2.90
2022-08-24T11:11:04.640Z,4.57
2022-08-24T11:13:31.016Z,2.83
2022-08-24T11:15:59.663Z,3.38
2022-08-24T11:18:26.765Z,3.33
2022-08-24T11:20:54.828Z,4.13
2022-08-24T11:23:31.049Z,3.65
2022-08-24T11:25:58.093Z,6.35
2022-08-24T11:28:38.933Z,3.92
2022-08-24T11:31:09.035Z,2.40
2022-08-24T11:33:49.603Z,2.88
2022-08-24T11:36:21.213Z,6.63
2022-08-24T11:38:47.832Z,2.38
2022-08-24T11:41:22.376Z,2.63
2022-08-24T11:43:51.771Z,4.85
2022-08-24T11:46:21.085Z,2.42
2022-08-24T11:49:02.756Z,3.85
2022-08-24T11:51:42.957Z,5.72
2022-08-24T11:54:19.441Z,2.80
2022-08-24T11:56:48.796Z,1.90
2022-08-24T11:59:16.367Z,2.30
2022-08-24T12:01:58.632Z,2.55
2022-08-24T12:04:25.953Z,2.45
2022-08-24T12:07:02.755Z,2.50
2022-08-24T12:09:58.975Z,2.75
2022-08-24T12:12:29.980Z,4.93
2022-08-24T12:15:05.153Z,2.67
2022-08-24T12:17:34.352Z,2.50
2022-08-24T12:20:04.074Z,3.63
2022-08-24T12:22:32.001Z,3.00
2022-08-24T12:25:00.855Z,2.20
2022-08-24T12:27:29.496Z,2.72
2022-08-24T12:30:12.978Z,2.53
2022-08-24T12:32:42.161Z,2.85
2022-08-24T12:35:38.011Z,3.95
2022-08-24T12:38:11.426Z,3.67
2022-08-24T12:40:58.590Z,2.65
2022-08-24T12:43:39.951Z,2.38
2022-08-24T12:46:06.886Z,2.20
2022-08-24T12:48:33.347Z,2.42
2022-08-24T12:51:17.886Z,1.95
2022-08-24T12:54:02.570Z,2.35
2022-08-24T12:56:57.624Z,3.28
2022-08-24T12:59:28.463Z,2.88
2022-08-24T13:01:58.005Z,1.90
2022-08-24T13:04:34.888Z,3.47
2022-08-24T13:07:07.212Z,3.45
2022-08-24T13:09:44.792Z,3.03
2022-08-24T13:12:29.805Z,2.55
2022-08-24T13:15:20.089Z,2.35
2022-08-24T13:17:47.045Z,2.00
2022-08-24T13:20:23.457Z,3.42
2022-08-24T13:23:08.520Z,4.75
2022-08-24T13:25:38.661Z,2.03
2022-08-24T13:28:07.508Z,5.70
2022-08-24T13:30:37.601Z,2.20
2022-08-24T13:33:09.849Z,2.25
2022-08-24T13:35:39.233Z,2.33
2022-08-24T13:38:23.976Z,5.63
2022-08-24T13:40:53.618Z,1.95
2022-08-24T13:43:28.269Z,2.25
2022-08-24T13:46:01.487Z,3.30
2022-08-24T13:48:42.910Z,3.45
2022-08-24T13:51:20.575Z,3.10
2022-08-24T13:54:26.200Z,3.58
2022-08-24T13:57:09.029Z,2.72
2022-08-24T14:00:03.762Z,2.72
2022-08-24T14:02:39.029Z,3.47
2022-08-24T14:05:08.615Z,2.35
2022-08-24T14:07:56.012Z,2.30
2022-08-24T14:10:41.244Z,3.28
2022-08-24T14:13:26.481Z,4.03
2022-08-24T14:16:20.272Z,3.88
2022-08-24T14:19:06.365Z,3.78
2022-08-24T14:21:46.236Z,2.97
2022-08-24T14:24:25.407Z,4.50
2022-08-24T14:26:59.625Z,2.20
2022-08-24T14:29:28.215Z,3.15
2022-08-24T14:31:58.587Z,2.38
2022-08-24T14:34:41.877Z,3.38
2022-08-24T14:37:14.178Z,2.10
2022-08-24T14:39:52.940Z,2.45
2022-08-24T14:42:37.672Z,2.20
2022-08-24T14:45:04.244Z,5.22
2022-08-24T14:47:42.642Z,2.30
2022-08-24T14:50:13.265Z,3.55
2022-08-24T14:52:51.771Z,3.08
2022-08-24T14:55:18.106Z,3.13
2022-08-24T14:57:44.462Z,4.13
2022-08-24T15:00:14.194Z,3.75
2022-08-24T15:02:55.963Z,3.67
2022-08-24T15:05:31.443Z,3.35
2022-08-24T15:07:58.068Z,3.83
2022-08-24T15:10:38.725Z,4.00
2022-08-24T15:13:09.185Z,3.72
2022-08-24T15:15:43.166Z,3.90
2022-08-24T15:18:13.350Z,3.30
2022-08-24T15:20:39.720Z,2.85
2022-08-24T15:23:24.848Z,2.28
2022-08-24T15:26:11.519Z,3.80
2022-08-24T15:28:38.077Z,3.17
2022-08-24T15:31:23.893Z,2.47
2022-08-24T15:33:58.545Z,2.53
2022-08-24T15:36:25.711Z,2.58
2022-08-24T15:38:52.124Z,3.38
2022-08-24T15:41:20.361Z,2.30
2022-08-24T15:43:53.470Z,4.45
2022-08-24T15:46:21.528Z,2.25
2022-08-24T15:48:48.358Z,2.47
2022-08-24T15:51:31.180Z,2.40
2022-08-24T15:53:57.649Z,2.03
2022-08-24T15:56:25.820Z,2.10
2022-08-24T15:58:52.423Z,3.58
2022-08-24T16:01:38.773Z,2.63
2022-08-24T16:04:08.026Z,2.78
2022-08-24T16:06:34.424Z,4.50
2022-08-24T16:09:03.726Z,2.35
2022-08-24T16:11:51.120Z,2.70
2022-08-24T16:14:25.773Z,3.40
2022-08-24T16:16:54.752Z,3.55
2022-08-24T16:19:26.002Z,3.47
2022-08-24T16:21:54.934Z,3.95
2022-08-24T16:24:28.841Z,2.45
2022-08-24T16:27:01.099Z,3.13
2022-08-24T16:29:37.478Z,4.30
2022-08-24T16:32:22.202Z,2.25
2022-08-24T16:35:08.907Z,3.63
2022-08-24T16:37:35.314Z,2.00
2022-08-24T16:40:01.836Z,1.92
2022-08-24T16:42:29.249Z,2.00
2022-08-24T16:44:56.327Z,1.77
2022-08-24T16:47:23.125Z,1.80
2022-08-24T16:49:49.938Z,3.58
2022-08-24T16:52:16.343Z,2.40
2022-08-24T16:54:42.780Z,2.75
2022-08-24T16:57:12.981Z,2.15
2022-08-24T16:59:41.000Z,3.63
2022-08-24T17:02:07.661Z,2.20
2022-08-24T17:04:35.830Z,2.42
2022-08-24T17:07:03.141Z,2.23
2022-08-24T17:09:29.853Z,1.90
2022-08-24T17:11:56.326Z,2.03
2022-08-24T17:14:22.722Z,2.07
2022-08-24T17:16:49.296Z,3.77
2022-08-24T17:19:17.661Z,1.80
2022-08-24T17:21:44.757Z,2.57
2022-08-24T17:24:11.732Z,2.90
2022-08-24T17:26:42.809Z,2.23
2022-08-24T17:29:15.147Z,3.10
2022-08-24T17:31:46.969Z,2.43
2022-08-24T17:34:13.828Z,4.83
2022-08-24T17:36:41.308Z,2.00
2022-08-24T17:39:09.808Z,2.87
2022-08-24T17:41:36.315Z,2.63
2022-08-24T17:44:02.851Z,3.50
2022-08-24T17:46:30.220Z,3.27
2022-08-24T17:48:57.324Z,2.17
2022-08-24T17:51:23.928Z,2.10
2022-08-24T17:53:50.588Z,2.13
2022-08-24T17:56:17.134Z,2.20
2022-08-24T17:59:02.503Z,3.33
2022-08-24T18:01:29.295Z,2.03
2022-08-24T18:03:55.996Z,2.17
2022-08-24T18:06:23.876Z,2.10
2022-08-24T18:08:50.581Z,2.20
2022-08-24T18:11:16.967Z,2.60
2022-08-24T18:13:43.428Z,2.90
2022-08-24T18:16:11.514Z,1.90
2022-08-24T18:18:38.731Z,2.97
2022-08-24T18:21:05.123Z,2.60
2022-08-24T18:23:31.564Z,4.50
2022-08-24T18:25:58.012Z,1.90
2022-08-24T18:28:24.714Z,2.47
2022-08-24T18:30:51.599Z,1.93
2022-08-24T18:33:18.088Z,3.57
2022-08-24T18:35:46.147Z,1.83
2022-08-24T18:38:13.206Z,3.10
2022-08-24T18:40:40.536Z,2.30
2022-08-24T18:43:19.633Z,3.00
2022-08-24T18:45:46.049Z,2.27
2022-08-24T18:48:12.487Z,4.17
2022-08-24T18:50:42.025Z,3.50
2022-08-24T18:53:08.878Z,2.10
2022-08-24T18:55:37.608Z,2.60
2022-08-24T18:58:04.385Z,3.20
2022-08-24T19:00:31.362Z,5.07
2022-08-24T19:03:01.187Z,2.43
2022-08-24T19:05:27.674Z,2.53
2022-08-24T19:07:54.736Z,2.80
2022-08-24T19:10:23.596Z,3.77
2022-08-24T19:12:52.388Z,2.70
2022-08-24T19:15:31.989Z,2.93
2022-08-24T19:18:05.740Z,4.87
2022-08-24T19:20:32.944Z,2.43
2022-08-24T19:23:10.569Z,3.20
2022-08-24T19:25:38.426Z,2.60
2022-08-24T19:28:05.246Z,2.57
2022-08-24T19:30:31.668Z,2.30
2022-08-24T19:32:59.256Z,4.17
2022-08-24T19:35:26.185Z,2.77
2022-08-24T19:37:52.745Z,3.57
2022-08-24T19:40:20.945Z,3.27
2022-08-24T19:42:50.741Z,2.50
2022-08-24T19:45:38.403Z,5.00
2022-08-24T19:48:04.900Z,3.17
2022-08-24T19:50:35.580Z,3.23
2022-08-24T19:53:02.612Z,3.97
2022-08-24T19:55:29.137Z,2.70
2022-08-24T19:58:00.966Z,3.67
2022-08-24T20:00:29.303Z,2.63
2022-08-24T20:02:56.536Z,1.90
2022-08-24T20:05:24.684Z,4.23
2022-08-24T20:07:51.608Z,3.77
2022-08-24T20:10:19.391Z,2.67
2022-08-24T20:12:45.804Z,5.03
2022-08-24T20:15:12.476Z,2.90
2022-08-24T20:17:38.895Z,2.97
2022-08-24T20:20:06.327Z,2.30
2022-08-24T20:22:32.907Z,3.53
2022-08-24T20:24:59.324Z,3.67
2022-08-24T20:27:26.781Z,3.57
2022-08-24T20:29:53.810Z,2.57
2022-08-24T20:32:20.375Z,3.00
2022-08-24T20:34:46.980Z,4.30
2022-08-24T20:37:24.011Z,2.37
2022-08-24T20:39:50.458Z,5.27
2022-08-24T20:42:21.047Z,2.63
2022-08-24T20:44:48.040Z,6.97
2022-08-24T20:47:14.766Z,4.20
2022-08-24T20:49:41.564Z,3.70
2022-08-24T20:52:08.307Z,3.93
2022-08-24T20:54:39.454Z,3.77
2022-08-24T20:57:07.199Z,4.13
2022-08-24T20:59:34.850Z,5.47
2022-08-24T21:02:02.559Z,2.40
2022-08-24T21:04:29.876Z,2.40
2022-08-24T21:06:56.917Z,2.27
2022-08-24T21:09:23.314Z,2.37
2022-08-24T21:11:50.123Z,2.43
2022-08-24T21:14:16.701Z,2.40
2022-08-24T21:16:43.513Z,2.37
2022-08-24T21:19:11.123Z,2.77
2022-08-24T21:21:41.730Z,2.93
2022-08-24T21:24:09.103Z,2.40
2022-08-24T21:26:35.460Z,2.63
2022-08-24T21:29:04.002Z,3.03
2022-08-24T21:31:30.441Z,2.97
2022-08-24T21:34:15.651Z,2.90
2022-08-24T21:36:42.699Z,2.20
2022-08-24T21:39:11.450Z,4.70
2022-08-24T21:41:38.440Z,2.50
2022-08-24T21:44:04.852Z,2.50
2022-08-24T21:46:36.254Z,4.50
2022-08-24T21:49:03.526Z,2.70
2022-08-24T21:51:30.012Z,2.60
2022-08-24T21:53:59.743Z,3.77
2022-08-24T21:56:28.827Z,2.63
2022-08-24T21:58:55.220Z,2.67
2022-08-24T22:01:21.792Z,4.17
2022-08-24T22:03:48.416Z,2.80
2022-08-24T22:06:14.986Z,2.70
2022-08-24T22:08:42.582Z,5.23
2022-08-24T22:11:10.319Z,3.23
2022-08-24T22:13:36.882Z,2.20
2022-08-24T22:16:03.540Z,2.43
2022-08-24T22:18:30.225Z,2.33
2022-08-24T22:20:56.720Z,2.97
2022-08-24T22:23:24.141Z,2.27
2022-08-24T22:25:51.608Z,2.20
2022-08-24T22:28:18.125Z,2.83
2022-08-24T22:30:47.957Z,2.60
2022-08-24T22:33:15.765Z,2.83
2022-08-24T22:35:45.381Z,2.57
2022-08-24T22:38:11.958Z,3.17
2022-08-24T22:40:38.595Z,3.10
2022-08-24T22:43:05.462Z,2.23
2022-08-24T22:45:32.093Z,2.43
2022-08-24T22:47:58.520Z,3.00
2022-08-24T22:50:25.019Z,2.90
2022-08-24T22:52:52.413Z,2.40
2022-08-24T22:55:18.877Z,4.23
2022-08-24T22:57:47.634Z,2.93
2022-08-24T23:00:17.777Z,1.90
2022-08-24T23:02:44.211Z,3.30
2022-08-24T23:05:10.595Z,2.37
2022-08-24T23:07:36.963Z,2.03
2022-08-24T23:10:06.616Z,2.93
2022-08-24T23:12:33.074Z,2.60
2022-08-24T23:14:59.678Z,2.10
2022-08-24T23:17:26.129Z,2.97
2022-08-24T23:20:01.863Z,3.83
2022-08-24T23:22:29.902Z,2.27
2022-08-24T23:24:56.385Z,3.00
2022-08-24T23:27:22.979Z,3.00
2022-08-24T23:29:49.571Z,2.83
2022-08-24T23:32:17.963Z,2.37
2022-08-24T23:34:45.626Z,2.80
2022-08-24T23:37:12.576Z,4.13
2022-08-24T23:39:39.375Z,4.07
2022-08-24T23:42:06.251Z,2.90
2022-08-24T23:44:33.556Z,3.33
2022-08-24T23:47:00.454Z,3.60
2022-08-24T23:49:27.699Z,2.43
2022-08-24T23:51:54.477Z,2.20
2022-08-24T23:54:21.367Z,2.37
2022-08-24T23:56:48.508Z,2.20
2022-08-24T23:59:16.681Z,3.07
